sensor_id;sensor_type;location;lat;lon;timestamp;P1;durP1;ratioP1;P2;durP2;ratioP2
2031;SDS011;27625;50.422;7.944;2023-09-07T00:05:55;5.43;;;3.77;;
2031;SDS011;27625;50.422;7.944;2023-09-07T00:12:09;6.93;;;4.63;;
2031;SDS011;27625;50.422;7.944;2023-09-07T00:14:57;5.47;;;4.27;;
2031;SDS011;27625;50.422;7.944;2023-09-07T00:23:48;6.37;;;4.00;;
2031;SDS011;27625;50.422;7.944;2023-09-07T00:26:15;5.93;;;4.10;;
2031;SDS011;27625;50.422;7.944;2023-09-07T00:28:42;5.83;;;4.17;;
2031;SDS011;27625;50.422;7.944;2023-09-07T00:31:18;6.90;;;4.40;;
2031;SDS011;27625;50.422;7.944;2023-09-07T00:40:44;7.20;;;4.27;;
2031;SDS011;27625;50.422;7.944;2023-09-07T00:43:13;8.33;;;4.50;;
2031;SDS011;27625;50.422;7.944;2023-09-07T00:45:45;6.00;;;4.00;;
2031;SDS011;27625;50.422;7.944;2023-09-07T00:48:15;6.37;;;3.97;;
2031;SDS011;27625;50.422;7.944;2023-09-07T00:50:42;7.07;;;4.47;;
2031;SDS011;27625;50.422;7.944;2023-09-07T00:53:13;5.00;;;3.70;;
2031;SDS011;27625;50.422;7.944;2023-09-07T00:55:50;5.37;;;3.73;;
2031;SDS011;27625;50.422;7.944;2023-09-07T01:02:04;6.43;;;4.23;;
2031;SDS011;27625;50.422;7.944;2023-09-07T01:08:26;6.43;;;4.43;;
2031;SDS011;27625;50.422;7.944;2023-09-07T01:14:43;7.03;;;4.00;;
2031;SDS011;27625;50.422;7.944;2023-09-07T01:20:58;5.90;;;3.90;;
2031;SDS011;27625;50.422;7.944;2023-09-07T01:33:56;5.80;;;4.43;;
2031;SDS011;27625;50.422;7.944;2023-09-07T01:36:25;5.60;;;4.33;;
2031;SDS011;27625;50.422;7.944;2023-09-07T01:38:52;5.43;;;3.90;;
2031;SDS011;27625;50.422;7.944;2023-09-07T01:41:19;6.33;;;4.10;;
2031;SDS011;27625;50.422;7.944;2023-09-07T01:43:49;5.60;;;3.80;;
2031;SDS011;27625;50.422;7.944;2023-09-07T01:46:18;6.87;;;4.47;;
2031;SDS011;27625;50.422;7.944;2023-09-07T01:51:21;6.60;;;4.67;;
2031;SDS011;27625;50.422;7.944;2023-09-07T01:53:49;6.30;;;4.07;;
2031;SDS011;27625;50.422;7.944;2023-09-07T01:56:18;6.33;;;4.20;;
2031;SDS011;27625;50.422;7.944;2023-09-07T01:58:46;6.80;;;4.37;;
2031;SDS011;27625;50.422;7.944;2023-09-07T02:01:21;5.90;;;3.80;;
2031;SDS011;27625;50.422;7.944;2023-09-07T02:03:49;5.53;;;3.97;;
2031;SDS011;27625;50.422;7.944;2023-09-07T02:06:16;5.37;;;3.83;;
2031;SDS011;27625;50.422;7.944;2023-09-07T02:08:43;5.90;;;3.90;;
2031;SDS011;27625;50.422;7.944;2023-09-07T02:11:10;5.10;;;3.70;;
2031;SDS011;27625;50.422;7.944;2023-09-07T02:13:37;5.57;;;3.93;;
2031;SDS011;27625;50.422;7.944;2023-09-07T02:16:16;6.13;;;3.90;;
2031;SDS011;27625;50.422;7.944;2023-09-07T02:21:24;6.73;;;4.10;;
2031;SDS011;27625;50.422;7.944;2023-09-07T02:23:52;7.27;;;4.90;;
2031;SDS011;27625;50.422;7.944;2023-09-07T02:26:23;5.77;;;4.33;;
2031;SDS011;27625;50.422;7.944;2023-09-07T02:32:50;6.40;;;3.90;;
2031;SDS011;27625;50.422;7.944;2023-09-07T02:39:05;7.80;;;4.80;;
2031;SDS011;27625;50.422;7.944;2023-09-07T02:45:21;6.53;;;4.40;;
2031;SDS011;27625;50.422;7.944;2023-09-07T02:51:35;6.93;;;4.23;;
2031;SDS011;27625;50.422;7.944;2023-09-07T02:57:50;6.00;;;3.93;;
2031;SDS011;27625;50.422;7.944;2023-09-07T03:04:07;6.07;;;3.83;;
2031;SDS011;27625;50.422;7.944;2023-09-07T03:10:24;6.60;;;4.17;;
2031;SDS011;27625;50.422;7.944;2023-09-07T03:20:29;5.37;;;4.00;;
2031;SDS011;27625;50.422;7.944;2023-09-07T03:25:39;6.47;;;4.20;;
2031;SDS011;27625;50.422;7.944;2023-09-07T03:37:46;6.33;;;4.40;;
2031;SDS011;27625;50.422;7.944;2023-09-07T03:40:27;6.20;;;4.50;;
2031;SDS011;27625;50.422;7.944;2023-09-07T03:52:50;6.73;;;4.27;;
2031;SDS011;27625;50.422;7.944;2023-09-07T03:55:28;6.57;;;4.77;;
2031;SDS011;27625;50.422;7.944;2023-09-07T04:01:43;6.57;;;4.43;;
2031;SDS011;27625;50.422;7.944;2023-09-07T04:04:18;7.90;;;5.30;;
2031;SDS011;27625;50.422;7.944;2023-09-07T04:10:37;6.73;;;4.60;;
2031;SDS011;27625;50.422;7.944;2023-09-07T04:16:52;5.90;;;4.40;;
2031;SDS011;27625;50.422;7.944;2023-09-07T04:19:19;7.80;;;4.47;;
2031;SDS011;27625;50.422;7.944;2023-09-07T04:21:45;7.63;;;4.23;;
2031;SDS011;27625;50.422;7.944;2023-09-07T04:24:12;6.43;;;4.30;;
2031;SDS011;27625;50.422;7.944;2023-09-07T04:26:41;6.33;;;4.10;;
2031;SDS011;27625;50.422;7.944;2023-09-07T04:29:08;6.57;;;5.20;;
2031;SDS011;27625;50.422;7.944;2023-09-07T04:31:37;7.50;;;5.10;;
2031;SDS011;27625;50.422;7.944;2023-09-07T04:34:04;5.87;;;4.47;;
2031;SDS011;27625;50.422;7.944;2023-09-07T04:36:30;6.80;;;4.70;;
2031;SDS011;27625;50.422;7.944;2023-09-07T04:38:57;6.63;;;4.50;;
2031;SDS011;27625;50.422;7.944;2023-09-07T04:41:24;6.73;;;4.90;;
2031;SDS011;27625;50.422;7.944;2023-09-07T04:43:52;8.80;;;4.50;;
2031;SDS011;27625;50.422;7.944;2023-09-07T04:46:21;7.60;;;5.13;;
2031;SDS011;27625;50.422;7.944;2023-09-07T04:48:48;7.63;;;4.83;;
2031;SDS011;27625;50.422;7.944;2023-09-07T04:51:16;7.90;;;4.77;;
2031;SDS011;27625;50.422;7.944;2023-09-07T04:53:43;6.23;;;4.90;;
2031;SDS011;27625;50.422;7.944;2023-09-07T04:56:10;6.80;;;5.00;;
2031;SDS011;27625;50.422;7.944;2023-09-07T04:58:39;7.03;;;4.40;;
2031;SDS011;27625;50.422;7.944;2023-09-07T05:01:09;6.13;;;5.00;;
2031;SDS011;27625;50.422;7.944;2023-09-07T05:03:38;7.53;;;5.20;;
2031;SDS011;27625;50.422;7.944;2023-09-07T05:06:08;8.33;;;5.30;;
2031;SDS011;27625;50.422;7.944;2023-09-07T05:08:34;7.77;;;4.60;;
2031;SDS011;27625;50.422;7.944;2023-09-07T05:11:08;6.87;;;4.50;;
2031;SDS011;27625;50.422;7.944;2023-09-07T05:13:35;7.87;;;5.03;;
2031;SDS011;27625;50.422;7.944;2023-09-07T05:16:02;6.27;;;4.50;;
2031;SDS011;27625;50.422;7.944;2023-09-07T05:18:33;8.40;;;4.90;;
2031;SDS011;27625;50.422;7.944;2023-09-07T05:21:00;8.73;;;4.77;;
2031;SDS011;27625;50.422;7.944;2023-09-07T05:23:27;7.67;;;5.10;;
2031;SDS011;27625;50.422;7.944;2023-09-07T05:25:55;11.03;;;4.40;;
2031;SDS011;27625;50.422;7.944;2023-09-07T05:28:24;5.07;;;4.10;;
2031;SDS011;27625;50.422;7.944;2023-09-07T05:30:53;7.33;;;4.43;;
2031;SDS011;27625;50.422;7.944;2023-09-07T05:33:23;6.83;;;4.87;;
2031;SDS011;27625;50.422;7.944;2023-09-07T05:35:51;7.90;;;5.13;;
2031;SDS011;27625;50.422;7.944;2023-09-07T05:38:19;12.53;;;4.43;;
2031;SDS011;27625;50.422;7.944;2023-09-07T05:40:48;10.30;;;4.47;;
2031;SDS011;27625;50.422;7.944;2023-09-07T05:43:21;8.60;;;4.70;;
2031;SDS011;27625;50.422;7.944;2023-09-07T05:45:48;6.70;;;4.60;;
2031;SDS011;27625;50.422;7.944;2023-09-07T05:48:15;6.70;;;4.77;;
2031;SDS011;27625;50.422;7.944;2023-09-07T05:50:42;7.70;;;4.77;;
2031;SDS011;27625;50.422;7.944;2023-09-07T05:53:12;6.13;;;4.40;;
2031;SDS011;27625;50.422;7.944;2023-09-07T05:55:40;6.23;;;4.40;;
2031;SDS011;27625;50.422;7.944;2023-09-07T05:58:07;5.90;;;4.30;;
2031;SDS011;27625;50.422;7.944;2023-09-07T06:00:38;6.47;;;4.43;;
2031;SDS011;27625;50.422;7.944;2023-09-07T06:03:05;7.10;;;4.77;;
2031;SDS011;27625;50.422;7.944;2023-09-07T06:05:35;6.97;;;4.50;;
2031;SDS011;27625;50.422;7.944;2023-09-07T06:08:03;12.87;;;5.27;;
2031;SDS011;27625;50.422;7.944;2023-09-07T06:10:34;5.53;;;3.80;;
2031;SDS011;27625;50.422;7.944;2023-09-07T06:13:02;7.53;;;4.80;;
2031;SDS011;27625;50.422;7.944;2023-09-07T06:15:31;6.00;;;4.50;;
2031;SDS011;27625;50.422;7.944;2023-09-07T06:17:58;7.07;;;4.20;;
2031;SDS011;27625;50.422;7.944;2023-09-07T06:20:26;7.47;;;4.40;;
2031;SDS011;27625;50.422;7.944;2023-09-07T06:22:55;6.23;;;4.20;;
2031;SDS011;27625;50.422;7.944;2023-09-07T06:25:29;6.10;;;4.23;;
2031;SDS011;27625;50.422;7.944;2023-09-07T06:27:59;6.90;;;4.60;;
2031;SDS011;27625;50.422;7.944;2023-09-07T06:30:27;6.30;;;3.97;;
2031;SDS011;27625;50.422;7.944;2023-09-07T06:32:55;5.77;;;3.43;;
2031;SDS011;27625;50.422;7.944;2023-09-07T06:35:23;5.80;;;4.30;;
2031;SDS011;27625;50.422;7.944;2023-09-07T06:37:50;5.90;;;4.00;;
2031;SDS011;27625;50.422;7.944;2023-09-07T06:40:22;6.80;;;4.10;;
2031;SDS011;27625;50.422;7.944;2023-09-07T06:42:52;5.17;;;3.90;;
2031;SDS011;27625;50.422;7.944;2023-09-07T06:45:23;4.40;;;3.50;;
2031;SDS011;27625;50.422;7.944;2023-09-07T06:47:50;6.83;;;3.97;;
2031;SDS011;27625;50.422;7.944;2023-09-07T06:50:20;6.73;;;4.10;;
2031;SDS011;27625;50.422;7.944;2023-09-07T06:52:47;6.87;;;4.40;;
2031;SDS011;27625;50.422;7.944;2023-09-07T06:55:15;6.10;;;4.00;;
2031;SDS011;27625;50.422;7.944;2023-09-07T06:57:42;7.37;;;4.27;;
2031;SDS011;27625;50.422;7.944;2023-09-07T07:00:09;6.37;;;3.70;;
2031;SDS011;27625;50.422;7.944;2023-09-07T07:02:38;5.10;;;4.10;;
2031;SDS011;27625;50.422;7.944;2023-09-07T07:05:06;7.10;;;4.80;;
2031;SDS011;27625;50.422;7.944;2023-09-07T07:07:35;7.90;;;4.60;;
2031;SDS011;27625;50.422;7.944;2023-09-07T07:10:01;5.33;;;3.80;;
2031;SDS011;27625;50.422;7.944;2023-09-07T07:12:31;5.60;;;3.83;;
2031;SDS011;27625;50.422;7.944;2023-09-07T07:15:01;6.53;;;4.30;;
2031;SDS011;27625;50.422;7.944;2023-09-07T07:17:29;6.33;;;3.80;;
2031;SDS011;27625;50.422;7.944;2023-09-07T07:19:57;5.67;;;4.50;;
2031;SDS011;27625;50.422;7.944;2023-09-07T07:22:24;7.13;;;3.80;;
2031;SDS011;27625;50.422;7.944;2023-09-07T07:24:51;5.13;;;3.80;;
2031;SDS011;27625;50.422;7.944;2023-09-07T07:27:19;5.90;;;4.20;;
2031;SDS011;27625;50.422;7.944;2023-09-07T07:29:46;5.60;;;3.90;;
2031;SDS011;27625;50.422;7.944;2023-09-07T07:32:13;6.07;;;4.00;;
2031;SDS011;27625;50.422;7.944;2023-09-07T07:34:40;5.50;;;3.97;;
2031;SDS011;27625;50.422;7.944;2023-09-07T07:37:08;5.93;;;4.17;;
2031;SDS011;27625;50.422;7.944;2023-09-07T07:39:35;5.70;;;4.17;;
2031;SDS011;27625;50.422;7.944;2023-09-07T07:42:02;4.83;;;3.80;;
2031;SDS011;27625;50.422;7.944;2023-09-07T07:44:31;5.27;;;3.80;;
2031;SDS011;27625;50.422;7.944;2023-09-07T07:46:58;6.80;;;3.87;;
2031;SDS011;27625;50.422;7.944;2023-09-07T07:49:25;6.27;;;4.20;;
2031;SDS011;27625;50.422;7.944;2023-09-07T07:51:53;5.80;;;4.23;;
2031;SDS011;27625;50.422;7.944;2023-09-07T07:54:22;5.33;;;3.77;;
2031;SDS011;27625;50.422;7.944;2023-09-07T07:56:50;5.40;;;4.20;;
2031;SDS011;27625;50.422;7.944;2023-09-07T07:59:17;6.40;;;4.50;;
2031;SDS011;27625;50.422;7.944;2023-09-07T08:01:44;7.27;;;4.20;;
2031;SDS011;27625;50.422;7.944;2023-09-07T08:04:10;5.90;;;4.20;;
2031;SDS011;27625;50.422;7.944;2023-09-07T08:06:37;6.20;;;4.03;;
2031;SDS011;27625;50.422;7.944;2023-09-07T08:09:04;5.20;;;3.70;;
2031;SDS011;27625;50.422;7.944;2023-09-07T08:11:33;5.90;;;3.73;;
2031;SDS011;27625;50.422;7.944;2023-09-07T08:14:00;7.43;;;4.30;;
2031;SDS011;27625;50.422;7.944;2023-09-07T08:16:27;6.00;;;4.40;;
2031;SDS011;27625;50.422;7.944;2023-09-07T08:18:54;6.73;;;4.27;;
2031;SDS011;27625;50.422;7.944;2023-09-07T08:21:21;7.37;;;3.80;;
2031;SDS011;27625;50.422;7.944;2023-09-07T08:23:47;5.70;;;4.27;;
2031;SDS011;27625;50.422;7.944;2023-09-07T08:26:15;5.30;;;4.00;;
2031;SDS011;27625;50.422;7.944;2023-09-07T08:28:46;5.13;;;3.93;;
2031;SDS011;27625;50.422;7.944;2023-09-07T08:31:12;8.63;;;4.33;;
2031;SDS011;27625;50.422;7.944;2023-09-07T08:33:46;7.80;;;4.87;;
2031;SDS011;27625;50.422;7.944;2023-09-07T08:36:16;6.83;;;4.60;;
2031;SDS011;27625;50.422;7.944;2023-09-07T08:38:43;5.77;;;4.47;;
2031;SDS011;27625;50.422;7.944;2023-09-07T08:41:09;5.87;;;4.13;;
2031;SDS011;27625;50.422;7.944;2023-09-07T08:43:39;7.40;;;4.80;;
2031;SDS011;27625;50.422;7.944;2023-09-07T08:46:13;8.40;;;4.57;;
2031;SDS011;27625;50.422;7.944;2023-09-07T08:48:40;6.40;;;4.17;;
2031;SDS011;27625;50.422;7.944;2023-09-07T08:51:08;6.87;;;4.90;;
2031;SDS011;27625;50.422;7.944;2023-09-07T08:53:37;7.27;;;4.67;;
2031;SDS011;27625;50.422;7.944;2023-09-07T08:56:04;7.83;;;4.50;;
2031;SDS011;27625;50.422;7.944;2023-09-07T08:58:30;8.00;;;4.37;;
2031;SDS011;27625;50.422;7.944;2023-09-07T09:00:59;6.90;;;4.90;;
2031;SDS011;27625;50.422;7.944;2023-09-07T09:03:26;6.00;;;3.97;;
2031;SDS011;27625;50.422;7.944;2023-09-07T09:05:53;6.93;;;4.80;;
2031;SDS011;27625;50.422;7.944;2023-09-07T09:08:22;5.87;;;4.07;;
2031;SDS011;27625;50.422;7.944;2023-09-07T09:10:49;6.83;;;4.60;;
2031;SDS011;27625;50.422;7.944;2023-09-07T09:13:26;6.20;;;4.10;;
2031;SDS011;27625;50.422;7.944;2023-09-07T09:15:53;5.73;;;4.37;;
2031;SDS011;27625;50.422;7.944;2023-09-07T09:18:23;5.93;;;3.40;;
2031;SDS011;27625;50.422;7.944;2023-09-07T09:20:51;5.43;;;4.20;;
2031;SDS011;27625;50.422;7.944;2023-09-07T09:23:17;6.40;;;4.30;;
2031;SDS011;27625;50.422;7.944;2023-09-07T09:25:44;7.67;;;4.57;;
2031;SDS011;27625;50.422;7.944;2023-09-07T09:28:11;6.63;;;4.50;;
2031;SDS011;27625;50.422;7.944;2023-09-07T09:30:37;5.87;;;4.57;;
2031;SDS011;27625;50.422;7.944;2023-09-07T09:33:05;5.90;;;3.63;;
2031;SDS011;27625;50.422;7.944;2023-09-07T09:35:34;5.63;;;4.30;;
2031;SDS011;27625;50.422;7.944;2023-09-07T09:38:01;6.60;;;4.70;;
2031;SDS011;27625;50.422;7.944;2023-09-07T09:40:29;6.10;;;4.60;;
2031;SDS011;27625;50.422;7.944;2023-09-07T09:42:56;7.47;;;4.30;;
2031;SDS011;27625;50.422;7.944;2023-09-07T09:45:24;9.50;;;4.90;;
2031;SDS011;27625;50.422;7.944;2023-09-07T09:47:53;8.40;;;4.90;;
2031;SDS011;27625;50.422;7.944;2023-09-07T09:50:22;7.13;;;4.40;;
2031;SDS011;27625;50.422;7.944;2023-09-07T09:52:50;7.70;;;4.00;;
2031;SDS011;27625;50.422;7.944;2023-09-07T09:55:19;6.53;;;4.00;;
2031;SDS011;27625;50.422;7.944;2023-09-07T09:57:45;5.73;;;4.13;;
2031;SDS011;27625;50.422;7.944;2023-09-07T10:00:12;6.27;;;4.40;;
2031;SDS011;27625;50.422;7.944;2023-09-07T10:02:55;7.00;;;4.63;;
2031;SDS011;27625;50.422;7.944;2023-09-07T10:05:26;5.97;;;3.83;;
2031;SDS011;27625;50.422;7.944;2023-09-07T10:07:59;6.00;;;4.27;;
2031;SDS011;27625;50.422;7.944;2023-09-07T10:10:31;7.00;;;4.40;;
2031;SDS011;27625;50.422;7.944;2023-09-07T10:12:59;7.57;;;5.23;;
2031;SDS011;27625;50.422;7.944;2023-09-07T10:15:27;5.40;;;4.40;;
2031;SDS011;27625;50.422;7.944;2023-09-07T10:18:09;5.40;;;4.10;;
2031;SDS011;27625;50.422;7.944;2023-09-07T10:20:52;6.83;;;4.37;;
2031;SDS011;27625;50.422;7.944;2023-09-07T10:23:22;6.30;;;4.10;;
2031;SDS011;27625;50.422;7.944;2023-09-07T10:25:51;5.90;;;4.20;;
2031;SDS011;27625;50.422;7.944;2023-09-07T10:28:18;7.83;;;4.20;;
2031;SDS011;27625;50.422;7.944;2023-09-07T10:31:01;5.17;;;4.23;;
2031;SDS011;27625;50.422;7.944;2023-09-07T10:33:33;5.03;;;4.10;;
2031;SDS011;27625;50.422;7.944;2023-09-07T10:36:00;5.10;;;4.10;;
2031;SDS011;27625;50.422;7.944;2023-09-07T10:38:34;5.77;;;4.37;;
2031;SDS011;27625;50.422;7.944;2023-09-07T10:41:03;5.23;;;4.03;;
2031;SDS011;27625;50.422;7.944;2023-09-07T10:43:31;4.50;;;3.73;;
2031;SDS011;27625;50.422;7.944;2023-09-07T10:45:59;5.40;;;4.13;;
2031;SDS011;27625;50.422;7.944;2023-09-07T10:48:28;5.07;;;3.50;;
2031;SDS011;27625;50.422;7.944;2023-09-07T10:50:55;5.67;;;3.90;;
2031;SDS011;27625;50.422;7.944;2023-09-07T10:53:27;6.40;;;4.13;;
2031;SDS011;27625;50.422;7.944;2023-09-07T10:55:58;5.43;;;4.20;;
2031;SDS011;27625;50.422;7.944;2023-09-07T10:58:25;4.50;;;3.50;;
2031;SDS011;27625;50.422;7.944;2023-09-07T11:00:53;5.83;;;4.27;;
2031;SDS011;27625;50.422;7.944;2023-09-07T11:03:19;5.90;;;4.10;;
2031;SDS011;27625;50.422;7.944;2023-09-07T11:05:46;6.27;;;4.50;;
2031;SDS011;27625;50.422;7.944;2023-09-07T11:08:13;6.00;;;4.10;;
2031;SDS011;27625;50.422;7.944;2023-09-07T11:10:40;5.73;;;4.10;;
2031;SDS011;27625;50.422;7.944;2023-09-07T11:13:09;6.60;;;4.00;;
2031;SDS011;27625;50.422;7.944;2023-09-07T11:15:36;6.70;;;4.10;;
2031;SDS011;27625;50.422;7.944;2023-09-07T11:18:05;5.17;;;4.17;;
2031;SDS011;27625;50.422;7.944;2023-09-07T11:20:34;7.30;;;4.47;;
2031;SDS011;27625;50.422;7.944;2023-09-07T11:23:05;6.13;;;3.67;;
2031;SDS011;27625;50.422;7.944;2023-09-07T11:25:36;5.20;;;3.77;;
2031;SDS011;27625;50.422;7.944;2023-09-07T11:28:03;8.27;;;4.90;;
2031;SDS011;27625;50.422;7.944;2023-09-07T11:30:32;6.23;;;4.70;;
2031;SDS011;27625;50.422;7.944;2023-09-07T11:33:02;6.80;;;4.20;;
2031;SDS011;27625;50.422;7.944;2023-09-07T11:35:30;5.23;;;3.97;;
2031;SDS011;27625;50.422;7.944;2023-09-07T11:37:58;5.73;;;4.80;;
2031;SDS011;27625;50.422;7.944;2023-09-07T11:40:25;5.57;;;4.07;;
2031;SDS011;27625;50.422;7.944;2023-09-07T11:42:52;4.70;;;3.90;;
2031;SDS011;27625;50.422;7.944;2023-09-07T11:45:19;5.00;;;3.60;;
2031;SDS011;27625;50.422;7.944;2023-09-07T11:47:47;5.90;;;4.10;;
2031;SDS011;27625;50.422;7.944;2023-09-07T11:50:16;6.50;;;3.80;;
2031;SDS011;27625;50.422;7.944;2023-09-07T11:52:42;5.60;;;4.13;;
2031;SDS011;27625;50.422;7.944;2023-09-07T11:55:09;6.50;;;4.00;;
2031;SDS011;27625;50.422;7.944;2023-09-07T11:57:36;8.40;;;4.13;;
2031;SDS011;27625;50.422;7.944;2023-09-07T12:00:03;5.90;;;3.97;;
2031;SDS011;27625;50.422;7.944;2023-09-07T12:02:37;5.40;;;4.00;;
2031;SDS011;27625;50.422;7.944;2023-09-07T12:05:06;5.80;;;3.87;;
2031;SDS011;27625;50.422;7.944;2023-09-07T12:07:35;6.53;;;3.57;;
2031;SDS011;27625;50.422;7.944;2023-09-07T12:10:03;6.10;;;4.20;;
2031;SDS011;27625;50.422;7.944;2023-09-07T12:12:30;5.40;;;3.77;;
2031;SDS011;27625;50.422;7.944;2023-09-07T12:14:56;5.70;;;3.47;;
2031;SDS011;27625;50.422;7.944;2023-09-07T12:17:23;6.23;;;3.70;;
2031;SDS011;27625;50.422;7.944;2023-09-07T12:19:49;4.20;;;3.20;;
2031;SDS011;27625;50.422;7.944;2023-09-07T12:22:18;4.83;;;3.47;;
2031;SDS011;27625;50.422;7.944;2023-09-07T12:24:44;6.07;;;3.73;;
2031;SDS011;27625;50.422;7.944;2023-09-07T12:27:11;4.90;;;3.43;;
2031;SDS011;27625;50.422;7.944;2023-09-07T12:29:39;5.10;;;3.77;;
2031;SDS011;27625;50.422;7.944;2023-09-07T12:32:06;4.80;;;3.67;;
2031;SDS011;27625;50.422;7.944;2023-09-07T12:34:32;4.93;;;3.90;;
2031;SDS011;27625;50.422;7.944;2023-09-07T12:36:59;4.77;;;3.53;;
2031;SDS011;27625;50.422;7.944;2023-09-07T12:39:28;4.33;;;3.33;;
2031;SDS011;27625;50.422;7.944;2023-09-07T12:41:57;5.20;;;3.27;;
2031;SDS011;27625;50.422;7.944;2023-09-07T12:44:23;5.13;;;3.57;;
2031;SDS011;27625;50.422;7.944;2023-09-07T12:46:50;4.53;;;3.40;;
2031;SDS011;27625;50.422;7.944;2023-09-07T12:49:18;6.10;;;3.80;;
2031;SDS011;27625;50.422;7.944;2023-09-07T12:51:45;8.80;;;3.97;;
2031;SDS011;27625;50.422;7.944;2023-09-07T12:54:11;4.97;;;3.63;;
2031;SDS011;27625;50.422;7.944;2023-09-07T12:56:39;5.50;;;3.30;;
2031;SDS011;27625;50.422;7.944;2023-09-07T12:59:06;4.87;;;3.50;;
2031;SDS011;27625;50.422;7.944;2023-09-07T13:01:33;5.60;;;3.40;;
2031;SDS011;27625;50.422;7.944;2023-09-07T13:04:00;4.93;;;3.57;;
2031;SDS011;27625;50.422;7.944;2023-09-07T13:06:27;4.77;;;3.47;;
2031;SDS011;27625;50.422;7.944;2023-09-07T13:08:54;3.70;;;2.90;;
2031;SDS011;27625;50.422;7.944;2023-09-07T13:11:21;6.23;;;3.20;;
2031;SDS011;27625;50.422;7.944;2023-09-07T13:13:55;4.10;;;3.10;;
2031;SDS011;27625;50.422;7.944;2023-09-07T13:16:21;5.20;;;3.50;;
2031;SDS011;27625;50.422;7.944;2023-09-07T13:18:48;4.90;;;3.47;;
2031;SDS011;27625;50.422;7.944;2023-09-07T13:21:15;4.57;;;3.50;;
2031;SDS011;27625;50.422;7.944;2023-09-07T13:23:42;4.03;;;3.03;;
2031;SDS011;27625;50.422;7.944;2023-09-07T13:28:38;4.87;;;2.90;;
2031;SDS011;27625;50.422;7.944;2023-09-07T13:31:07;4.47;;;3.10;;
2031;SDS011;27625;50.422;7.944;2023-09-07T13:33:35;5.33;;;3.13;;
2031;SDS011;27625;50.422;7.944;2023-09-07T13:36:02;4.43;;;3.40;;
2031;SDS011;27625;50.422;7.944;2023-09-07T13:38:29;5.30;;;3.30;;
2031;SDS011;27625;50.422;7.944;2023-09-07T13:40:55;4.20;;;2.77;;
2031;SDS011;27625;50.422;7.944;2023-09-07T13:43:22;6.60;;;3.10;;
2031;SDS011;27625;50.422;7.944;2023-09-07T13:45:49;7.17;;;3.00;;
2031;SDS011;27625;50.422;7.944;2023-09-07T13:48:17;4.90;;;3.43;;
2031;SDS011;27625;50.422;7.944;2023-09-07T13:50:43;5.13;;;2.90;;
2031;SDS011;27625;50.422;7.944;2023-09-07T13:53:10;5.17;;;3.20;;
2031;SDS011;27625;50.422;7.944;2023-09-07T13:55:36;4.10;;;3.20;;
2031;SDS011;27625;50.422;7.944;2023-09-07T13:58:05;4.77;;;3.30;;
2031;SDS011;27625;50.422;7.944;2023-09-07T14:00:31;5.87;;;3.50;;
2031;SDS011;27625;50.422;7.944;2023-09-07T14:02:58;4.23;;;3.17;;
2031;SDS011;27625;50.422;7.944;2023-09-07T14:05:26;5.60;;;3.70;;
2031;SDS011;27625;50.422;7.944;2023-09-07T14:07:53;5.90;;;3.30;;
2031;SDS011;27625;50.422;7.944;2023-09-07T14:10:20;4.90;;;3.77;;
2031;SDS011;27625;50.422;7.944;2023-09-07T14:12:46;6.00;;;3.33;;
2031;SDS011;27625;50.422;7.944;2023-09-07T14:15:14;5.53;;;3.43;;
2031;SDS011;27625;50.422;7.944;2023-09-07T14:17:42;4.50;;;3.10;;
2031;SDS011;27625;50.422;7.944;2023-09-07T14:20:10;4.20;;;3.33;;
2031;SDS011;27625;50.422;7.944;2023-09-07T14:22:39;4.50;;;3.13;;
2031;SDS011;27625;50.422;7.944;2023-09-07T14:25:06;4.03;;;2.83;;
2031;SDS011;27625;50.422;7.944;2023-09-07T14:27:33;4.63;;;3.30;;
2031;SDS011;27625;50.422;7.944;2023-09-07T14:29:59;6.53;;;3.03;;
2031;SDS011;27625;50.422;7.944;2023-09-07T14:32:28;4.73;;;3.10;;
2031;SDS011;27625;50.422;7.944;2023-09-07T14:34:56;4.20;;;3.20;;
2031;SDS011;27625;50.422;7.944;2023-09-07T14:37:23;5.00;;;3.10;;
2031;SDS011;27625;50.422;7.944;2023-09-07T14:39:51;5.40;;;3.20;;
2031;SDS011;27625;50.422;7.944;2023-09-07T14:42:22;6.90;;;3.10;;
2031;SDS011;27625;50.422;7.944;2023-09-07T14:44:49;5.20;;;3.33;;
2031;SDS011;27625;50.422;7.944;2023-09-07T14:47:17;4.27;;;3.07;;
2031;SDS011;27625;50.422;7.944;2023-09-07T14:49:50;5.43;;;3.90;;
2031;SDS011;27625;50.422;7.944;2023-09-07T14:52:23;4.90;;;3.20;;
2031;SDS011;27625;50.422;7.944;2023-09-07T14:54:53;5.10;;;3.10;;
2031;SDS011;27625;50.422;7.944;2023-09-07T14:57:20;5.47;;;3.30;;
2031;SDS011;27625;50.422;7.944;2023-09-07T14:59:47;6.10;;;3.50;;
2031;SDS011;27625;50.422;7.944;2023-09-07T15:02:15;7.20;;;3.30;;
2031;SDS011;27625;50.422;7.944;2023-09-07T15:04:41;5.07;;;3.33;;
2031;SDS011;27625;50.422;7.944;2023-09-07T15:07:10;6.90;;;3.57;;
2031;SDS011;27625;50.422;7.944;2023-09-07T15:09:36;3.73;;;2.83;;
2031;SDS011;27625;50.422;7.944;2023-09-07T15:12:05;5.50;;;3.20;;
2031;SDS011;27625;50.422;7.944;2023-09-07T15:14:32;4.70;;;3.03;;
2031;SDS011;27625;50.422;7.944;2023-09-07T15:17:00;3.57;;;2.50;;
2031;SDS011;27625;50.422;7.944;2023-09-07T15:19:27;3.90;;;3.00;;
2031;SDS011;27625;50.422;7.944;2023-09-07T15:21:55;5.80;;;3.47;;
2031;SDS011;27625;50.422;7.944;2023-09-07T15:24:22;4.87;;;3.50;;
2031;SDS011;27625;50.422;7.944;2023-09-07T15:26:48;4.83;;;2.93;;
2031;SDS011;27625;50.422;7.944;2023-09-07T15:29:18;4.70;;;3.40;;
2031;SDS011;27625;50.422;7.944;2023-09-07T15:31:45;5.73;;;3.37;;
2031;SDS011;27625;50.422;7.944;2023-09-07T15:34:12;5.30;;;3.53;;
2031;SDS011;27625;50.422;7.944;2023-09-07T15:36:40;4.83;;;3.23;;
2031;SDS011;27625;50.422;7.944;2023-09-07T15:39:07;4.93;;;3.20;;
2031;SDS011;27625;50.422;7.944;2023-09-07T15:41:34;8.03;;;3.27;;
2031;SDS011;27625;50.422;7.944;2023-09-07T15:44:01;4.33;;;3.10;;
2031;SDS011;27625;50.422;7.944;2023-09-07T15:46:29;5.80;;;3.20;;
2031;SDS011;27625;50.422;7.944;2023-09-07T15:48:57;4.70;;;3.30;;
2031;SDS011;27625;50.422;7.944;2023-09-07T15:51:24;7.67;;;3.10;;
2031;SDS011;27625;50.422;7.944;2023-09-07T15:53:50;5.20;;;3.50;;
2031;SDS011;27625;50.422;7.944;2023-09-07T15:56:17;4.73;;;3.20;;
2031;SDS011;27625;50.422;7.944;2023-09-07T15:58:44;4.07;;;2.90;;
2031;SDS011;27625;50.422;7.944;2023-09-07T16:01:11;4.43;;;3.03;;
2031;SDS011;27625;50.422;7.944;2023-09-07T16:03:42;4.30;;;2.93;;
2031;SDS011;27625;50.422;7.944;2023-09-07T16:06:08;4.27;;;3.03;;
2031;SDS011;27625;50.422;7.944;2023-09-07T16:08:35;4.73;;;2.77;;
2031;SDS011;27625;50.422;7.944;2023-09-07T16:11:02;4.47;;;3.20;;
2031;SDS011;27625;50.422;7.944;2023-09-07T16:13:29;5.97;;;3.40;;
2031;SDS011;27625;50.422;7.944;2023-09-07T16:15:56;4.90;;;3.07;;
2031;SDS011;27625;50.422;7.944;2023-09-07T16:18:22;4.10;;;2.80;;
2031;SDS011;27625;50.422;7.944;2023-09-07T16:20:51;4.90;;;3.43;;
2031;SDS011;27625;50.422;7.944;2023-09-07T16:23:19;3.90;;;2.80;;
2031;SDS011;27625;50.422;7.944;2023-09-07T16:25:47;5.63;;;3.93;;
2031;SDS011;27625;50.422;7.944;2023-09-07T16:28:20;3.80;;;2.67;;
2031;SDS011;27625;50.422;7.944;2023-09-07T16:30:46;5.33;;;3.20;;
2031;SDS011;27625;50.422;7.944;2023-09-07T16:33:13;4.40;;;2.80;;
2031;SDS011;27625;50.422;7.944;2023-09-07T16:35:42;4.23;;;3.00;;
2031;SDS011;27625;50.422;7.944;2023-09-07T16:38:10;4.23;;;3.10;;
2031;SDS011;27625;50.422;7.944;2023-09-07T16:40:37;5.77;;;2.80;;
2031;SDS011;27625;50.422;7.944;2023-09-07T16:43:04;4.00;;;3.00;;
2031;SDS011;27625;50.422;7.944;2023-09-07T16:45:33;4.87;;;3.23;;
2031;SDS011;27625;50.422;7.944;2023-09-07T16:48:00;4.80;;;3.20;;
2031;SDS011;27625;50.422;7.944;2023-09-07T16:50:27;4.40;;;3.20;;
2031;SDS011;27625;50.422;7.944;2023-09-07T16:52:56;4.30;;;3.10;;
2031;SDS011;27625;50.422;7.944;2023-09-07T16:55:25;4.93;;;3.50;;
2031;SDS011;27625;50.422;7.944;2023-09-07T16:57:55;5.70;;;3.57;;
2031;SDS011;27625;50.422;7.944;2023-09-07T17:00:22;4.20;;;3.20;;
2031;SDS011;27625;50.422;7.944;2023-09-07T17:02:48;6.33;;;2.90;;
2031;SDS011;27625;50.422;7.944;2023-09-07T17:05:15;5.23;;;3.77;;
2031;SDS011;27625;50.422;7.944;2023-09-07T17:07:43;4.60;;;3.20;;
2031;SDS011;27625;50.422;7.944;2023-09-07T17:10:11;5.63;;;3.60;;